Flight Track Log - Related Links

Times and Time Zones

All times are in EDT time to prevent confusion due to time zone crossing. See the RPA3496 flight status page for this flight to view local times or setup timezone preferences in your user account.

Time Position Orientation Groundspeed Altitude Reporting Facility
EDT Latitude Longitude Course Direction KTS MPH feet Rate Location/Type
Fri 03:11:54 PM 39.8833 -75.2333 44° Northeast 136 157 800  Level Philadelphia TRACON
Fri 03:13:06 PM 39.9000 -75.1500 75° East 225 259 3,500 2,359 Climbing Philadelphia TRACON
Fri 03:14:00 PM 39.8500 -75.0621 90° East  Level FlightAware
Fri 03:15:00 PM 39.8500 -75.0039 90° East  Level FlightAware
Fri 03:15:20 PM 39.9919 -75.1142 17° North 145 167 8,900  Level New Center
Fri 03:16:00 PM 39.8616 -74.9522 44° Northeast  Level FlightAware
Fri 03:16:19 PM 39.9794 -75.2244 262° West 209 241 9,900  Level New Center
Fri 03:17:00 PM 39.8938 -74.9119 44° Northeast  Level FlightAware
Fri 03:17:20 PM 39.9644 -75.3453 261° West 294 338 9,900  Level New Center
Fri 03:18:18 PM 39.9478 -75.4472 258° West 328 377 9,900 1,008 Level New Center
Fri 03:19:19 PM 39.9403 -75.5819 266° West 334 384 11,900 2,281 Climbing New Center
Fri 03:20:19 PM 39.9419 -75.6933 271° West 340 391 14,500 2,850 Climbing New Center
Fri 03:21:19 PM 39.9442 -75.8369 271° West 361 415 17,600 2,571 Climbing New Center
Fri 03:22:18 PM 39.9472 -75.9589 272° West 370 426 19,600 2,017 Climbing New Center
Fri 03:23:18 PM 39.9514 -76.0975 272° West 377 434 21,600 1,200 Climbing New Center
Fri 03:24:18 PM 39.9525 -76.2572 271° West 399 459 22,000 200 Climbing New Center
Fri 03:25:18 PM 39.9564 -76.3983 272° West 406 467 22,000  Level New Center
Fri 03:26:19 PM 39.9578 -76.5394 271° West 406 467 22,000  Level New Center
Fri 03:27:19 PM 39.9614 -76.6778 272° West 406 467 22,000  Level New Center
Fri 03:28:18 PM 39.9625 -76.8217 271° West 400 460 22,000  Level New Center
Fri 03:29:18 PM 39.9636 -76.9625 271° West 400 460 22,000  Level New Center
Fri 03:30:18 PM 39.9644 -77.1036 270° West 400 460 22,000 -98 Level New Center
Fri 03:31:20 PM 39.9650 -77.2472 270° West 400 460 21,800 -923 Descending New Center
Fri 03:32:28 PM 39.9681 -77.4083 271° West 393 452 20,000 -824 Descending Cleveland Center
Fri 03:33:31 PM 39.9692 -77.5486 271° West 391 450 20,000  Level Cleveland Center
Fri 03:34:33 PM 39.9694 -77.6897 270° West 391 450 20,000  Level Cleveland Center
Fri 03:35:35 PM 39.9700 -77.8281 270° West 389 448 20,000  Level Cleveland Center
Fri 03:36:37 PM 39.9697 -77.9600 270° West 370 426 20,000  Level Cleveland Center
Fri 03:37:39 PM 39.9858 -78.0994 279° West 335 386 20,000  Level Cleveland Center
Fri 03:38:41 PM 40.0025 -78.2189 280° West 335 386 20,000  Level Cleveland Center
Fri 03:39:43 PM 40.0181 -78.3258 281° West 335 386 20,000 -48 Level Cleveland Center
Fri 03:40:46 PM 40.0364 -78.4667 280° West 334 384 19,900 -624 Descending Cleveland Center
Fri 03:41:48 PM 40.0689 -78.5811 290° West 338 389 18,700 -1,113 Descending Cleveland Center
Fri 03:42:50 PM 40.0986 -78.6944 289° West 335 386 17,600 -1,065 Descending Cleveland Center
Fri 03:43:52 PM 40.1125 -78.8103 279° West 330 380 16,500 -1,065 Descending Cleveland Center
Fri 03:44:54 PM 40.1397 -78.9214 288° West 325 374 15,400 -1,258 Descending Cleveland Center
Fri 03:45:56 PM 40.1514 -79.0753 276° West 355 409 13,900 -1,355 Descending Cleveland Center
Fri 03:46:58 PM 40.1611 -79.1997 276° West 347 399 12,600 -1,200 Descending Cleveland Center
Fri 03:48:01 PM 40.1942 -79.3058 292° West 316 364 11,400 -1,104 Descending Cleveland Center
Fri 03:49:03 PM 40.2267 -79.4097 292° West 312 359 10,300 -677 Descending Cleveland Center
Fri 03:50:05 PM 40.2597 -79.5128 293° West 310 357 10,000 -145 Descending Cleveland Center
Fri 03:51:07 PM 40.3097 -79.6028 306° West 321 369 10,000 -532 Level Cleveland Center
Fri 03:52:09 PM 40.4100 -79.6592 337° Northwest 329 379 8,900 -1,306 Descending Cleveland Center
Fri 03:53:11 PM 40.4658 -79.7292 316° Northwest 292 336 7,300 -1,113 Descending Cleveland Center
Fri 03:54:13 PM 40.4736 -79.8122 277° West 228 262 6,600 -823 Descending Cleveland Center
Fri 03:55:15 PM 40.4764 -79.8897 273° West 219 252 5,600 -968 Descending Cleveland Center
Fri 03:56:17 PM 40.4789 -79.9661 272° West 215 247 4,600 -1,008 Descending Cleveland Center
Fri 03:57:20 PM 40.4811 -80.0444 272° West 180 207 3,500 -912 Descending Cleveland Center
Fri 03:58:22 PM 40.4828 -80.1019 272° West 165 190 2,700 -726 Descending Cleveland Center
Fri 03:59:24 PM 40.4839 -80.1492 272° West 142 163 2,000 -629 Descending Cleveland Center
Fri 04:00:26 PM 40.4844 -80.1936 271° West 130 150 1,400 -581 Descending Cleveland Center
Fri 04:02:00 PM 40.4914 -80.2327 283° West  Level Estimated

Login

Don't have an account? Register now (free) for customized features, flight alerts, and more!